sensor_id;sensor_type;location;lat;lon;timestamp;temperature;humidity
27544;DHT22;17996;51.056;3.656;2022-09-21T00:00:41;12.60;99.90
27544;DHT22;17996;51.056;3.656;2022-09-21T00:03:07;12.60;99.90
27544;DHT22;17996;51.056;3.656;2022-09-21T00:05:33;12.70;99.90
27544;DHT22;17996;51.056;3.656;2022-09-21T00:08:00;12.60;99.90
27544;DHT22;17996;51.056;3.656;2022-09-21T00:10:27;12.60;99.90
27544;DHT22;17996;51.056;3.656;2022-09-21T00:12:54;12.70;99.90
27544;DHT22;17996;51.056;3.656;2022-09-21T00:15:21;12.60;99.90
27544;DHT22;17996;51.056;3.656;2022-09-21T00:17:47;12.60;99.90
27544;DHT22;17996;51.056;3.656;2022-09-21T00:20:13;12.60;99.90
27544;DHT22;17996;51.056;3.656;2022-09-21T00:22:40;12.60;99.90
27544;DHT22;17996;51.056;3.656;2022-09-21T00:25:07;12.60;99.90
27544;DHT22;17996;51.056;3.656;2022-09-21T00:27:34;12.50;99.90
27544;DHT22;17996;51.056;3.656;2022-09-21T00:30:00;12.50;99.90
27544;DHT22;17996;51.056;3.656;2022-09-21T00:32:29;12.50;99.90
27544;DHT22;17996;51.056;3.656;2022-09-21T00:34:59;12.50;99.90
27544;DHT22;17996;51.056;3.656;2022-09-21T00:37:26;12.50;99.90
27544;DHT22;17996;51.056;3.656;2022-09-21T00:39:53;12.50;99.90
27544;DHT22;17996;51.056;3.656;2022-09-21T00:42:30;12.50;99.90
27544;DHT22;17996;51.056;3.656;2022-09-21T00:44:56;12.50;99.90
27544;DHT22;17996;51.056;3.656;2022-09-21T00:47:27;12.40;99.90
27544;DHT22;17996;51.056;3.656;2022-09-21T00:49:55;12.40;99.90
27544;DHT22;17996;51.056;3.656;2022-09-21T00:52:23;12.40;99.90
27544;DHT22;17996;51.056;3.656;2022-09-21T00:54:59;12.40;99.90
27544;DHT22;17996;51.056;3.656;2022-09-21T00:57:28;12.40;99.90
27544;DHT22;17996;51.056;3.656;2022-09-21T01:00:03;12.30;99.90
27544;DHT22;17996;51.056;3.656;2022-09-21T01:02:29;12.30;99.90
27544;DHT22;17996;51.056;3.656;2022-09-21T01:04:55;12.20;99.90
27544;DHT22;17996;51.056;3.656;2022-09-21T01:07:25;12.10;99.90
27544;DHT22;17996;51.056;3.656;2022-09-21T01:09:55;12.10;99.90
27544;DHT22;17996;51.056;3.656;2022-09-21T01:15:11;12.10;99.90
27544;DHT22;17996;51.056;3.656;2022-09-21T01:26:09;12.10;99.90
27544;DHT22;17996;51.056;3.656;2022-09-21T01:31:24;12.00;99.90
27544;DHT22;17996;51.056;3.656;2022-09-21T01:33:54;11.90;99.90
27544;DHT22;17996;51.056;3.656;2022-09-21T01:36:26;11.90;99.90
27544;DHT22;17996;51.056;3.656;2022-09-21T01:39:09;11.90;99.90
27544;DHT22;17996;51.056;3.656;2022-09-21T01:41:37;11.90;99.90
27544;DHT22;17996;51.056;3.656;2022-09-21T01:44:14;11.80;99.90
27544;DHT22;17996;51.056;3.656;2022-09-21T01:46:45;11.80;99.90
27544;DHT22;17996;51.056;3.656;2022-09-21T01:49:19;11.80;99.90
27544;DHT22;17996;51.056;3.656;2022-09-21T01:51:52;11.70;99.90
27544;DHT22;17996;51.056;3.656;2022-09-21T01:54:45;11.80;99.90
27544;DHT22;17996;51.056;3.656;2022-09-21T01:57:55;11.80;99.90
27544;DHT22;17996;51.056;3.656;2022-09-21T02:00:24;11.80;99.90
27544;DHT22;17996;51.056;3.656;2022-09-21T02:02:59;11.70;99.90
27544;DHT22;17996;51.056;3.656;2022-09-21T02:05:27;11.70;99.90
27544;DHT22;17996;51.056;3.656;2022-09-21T02:07:55;11.80;99.90
27544;DHT22;17996;51.056;3.656;2022-09-21T02:10:43;11.70;99.90
27544;DHT22;17996;51.056;3.656;2022-09-21T02:13:10;11.70;99.90
27544;DHT22;17996;51.056;3.656;2022-09-21T02:16:02;11.70;99.90
27544;DHT22;17996;51.056;3.656;2022-09-21T02:18:55;11.70;99.90
27544;DHT22;17996;51.056;3.656;2022-09-21T02:21:50;11.60;99.90
27544;DHT22;17996;51.056;3.656;2022-09-21T02:29:53;11.60;99.90
27544;DHT22;17996;51.056;3.656;2022-09-21T02:35:13;11.50;99.90
27544;DHT22;17996;51.056;3.656;2022-09-21T02:37:51;11.50;99.90
27544;DHT22;17996;51.056;3.656;2022-09-21T02:40:39;11.50;99.90
27544;DHT22;17996;51.056;3.656;2022-09-21T02:43:32;11.60;99.90
27544;DHT22;17996;51.056;3.656;2022-09-21T02:46:04;11.60;99.90
27544;DHT22;17996;51.056;3.656;2022-09-21T02:48:52;11.50;99.90
27544;DHT22;17996;51.056;3.656;2022-09-21T02:51:24;11.40;99.90
27544;DHT22;17996;51.056;3.656;2022-09-21T02:53:52;11.40;99.90
27544;DHT22;17996;51.056;3.656;2022-09-21T02:56:19;11.40;99.90
27544;DHT22;17996;51.056;3.656;2022-09-21T02:58:50;11.40;99.90
27544;DHT22;17996;51.056;3.656;2022-09-21T03:01:19;11.30;99.90
27544;DHT22;17996;51.056;3.656;2022-09-21T03:03:46;11.30;99.90
27544;DHT22;17996;51.056;3.656;2022-09-21T03:06:12;11.30;99.90
27544;DHT22;17996;51.056;3.656;2022-09-21T03:08:37;11.40;99.90
27544;DHT22;17996;51.056;3.656;2022-09-21T03:11:03;11.40;99.90
27544;DHT22;17996;51.056;3.656;2022-09-21T03:13:29;11.30;99.90
27544;DHT22;17996;51.056;3.656;2022-09-21T03:16:01;11.30;99.90
27544;DHT22;17996;51.056;3.656;2022-09-21T03:18:27;11.30;99.90
27544;DHT22;17996;51.056;3.656;2022-09-21T03:20:53;11.30;99.90
27544;DHT22;17996;51.056;3.656;2022-09-21T03:23:18;11.40;99.90
27544;DHT22;17996;51.056;3.656;2022-09-21T03:25:45;11.40;99.90
27544;DHT22;17996;51.056;3.656;2022-09-21T03:28:12;11.60;99.90
27544;DHT22;17996;51.056;3.656;2022-09-21T03:30:38;11.40;99.90
27544;DHT22;17996;51.056;3.656;2022-09-21T03:33:04;11.40;99.90
27544;DHT22;17996;51.056;3.656;2022-09-21T03:35:31;11.40;99.90
27544;DHT22;17996;51.056;3.656;2022-09-21T03:37:58;11.40;99.90
27544;DHT22;17996;51.056;3.656;2022-09-21T03:40:24;11.10;99.90
27544;DHT22;17996;51.056;3.656;2022-09-21T03:42:52;11.00;99.90
27544;DHT22;17996;51.056;3.656;2022-09-21T03:45:18;10.80;99.90
27544;DHT22;17996;51.056;3.656;2022-09-21T03:47:45;10.70;99.90
27544;DHT22;17996;51.056;3.656;2022-09-21T03:50:11;10.70;99.90
27544;DHT22;17996;51.056;3.656;2022-09-21T03:52:37;10.60;99.90
27544;DHT22;17996;51.056;3.656;2022-09-21T03:55:05;10.70;99.90
27544;DHT22;17996;51.056;3.656;2022-09-21T03:57:35;10.50;99.90
27544;DHT22;17996;51.056;3.656;2022-09-21T04:00:05;10.30;99.90
27544;DHT22;17996;51.056;3.656;2022-09-21T04:02:31;10.20;99.90
27544;DHT22;17996;51.056;3.656;2022-09-21T04:04:57;10.20;99.90
27544;DHT22;17996;51.056;3.656;2022-09-21T04:07:23;10.00;99.90
27544;DHT22;17996;51.056;3.656;2022-09-21T04:09:49;10.00;99.90
27544;DHT22;17996;51.056;3.656;2022-09-21T04:12:15;9.90;99.90
27544;DHT22;17996;51.056;3.656;2022-09-21T04:14:41;9.90;99.90
27544;DHT22;17996;51.056;3.656;2022-09-21T04:17:06;9.80;99.90
27544;DHT22;17996;51.056;3.656;2022-09-21T04:19:32;9.90;99.90
27544;DHT22;17996;51.056;3.656;2022-09-21T04:21:58;10.00;99.90
27544;DHT22;17996;51.056;3.656;2022-09-21T04:24:23;10.10;99.90
27544;DHT22;17996;51.056;3.656;2022-09-21T04:26:49;10.10;99.90
27544;DHT22;17996;51.056;3.656;2022-09-21T04:29:15;10.10;99.90
27544;DHT22;17996;51.056;3.656;2022-09-21T04:31:41;10.20;99.90
27544;DHT22;17996;51.056;3.656;2022-09-21T04:34:08;10.30;99.90
27544;DHT22;17996;51.056;3.656;2022-09-21T04:36:36;10.50;99.90
27544;DHT22;17996;51.056;3.656;2022-09-21T04:39:03;10.40;99.90
27544;DHT22;17996;51.056;3.656;2022-09-21T04:41:29;10.50;99.90
27544;DHT22;17996;51.056;3.656;2022-09-21T04:43:54;10.50;99.90
27544;DHT22;17996;51.056;3.656;2022-09-21T04:46:20;10.60;99.90
27544;DHT22;17996;51.056;3.656;2022-09-21T04:48:47;10.60;99.90
27544;DHT22;17996;51.056;3.656;2022-09-21T04:51:14;10.70;99.90
27544;DHT22;17996;51.056;3.656;2022-09-21T04:53:41;10.70;99.90
27544;DHT22;17996;51.056;3.656;2022-09-21T04:56:08;10.60;99.90
27544;DHT22;17996;51.056;3.656;2022-09-21T04:58:34;10.60;99.90
27544;DHT22;17996;51.056;3.656;2022-09-21T05:01:00;10.60;99.90
27544;DHT22;17996;51.056;3.656;2022-09-21T05:03:26;10.60;99.90
27544;DHT22;17996;51.056;3.656;2022-09-21T05:05:54;10.60;99.90
27544;DHT22;17996;51.056;3.656;2022-09-21T05:08:21;10.60;99.90
27544;DHT22;17996;51.056;3.656;2022-09-21T05:11:09;10.50;99.90
27544;DHT22;17996;51.056;3.656;2022-09-21T05:13:35;10.60;99.90
27544;DHT22;17996;51.056;3.656;2022-09-21T05:16:01;10.80;99.90
27544;DHT22;17996;51.056;3.656;2022-09-21T05:18:26;10.60;99.90
27544;DHT22;17996;51.056;3.656;2022-09-21T05:20:57;10.80;99.90
27544;DHT22;17996;51.056;3.656;2022-09-21T05:23:23;10.70;99.90
27544;DHT22;17996;51.056;3.656;2022-09-21T05:25:50;10.80;99.90
27544;DHT22;17996;51.056;3.656;2022-09-21T05:28:16;10.70;99.90
27544;DHT22;17996;51.056;3.656;2022-09-21T05:30:44;10.60;99.90
27544;DHT22;17996;51.056;3.656;2022-09-21T05:33:13;10.60;99.90
27544;DHT22;17996;51.056;3.656;2022-09-21T05:35:45;10.50;99.90
27544;DHT22;17996;51.056;3.656;2022-09-21T05:38:15;10.40;99.90
27544;DHT22;17996;51.056;3.656;2022-09-21T05:40:42;10.30;99.90
27544;DHT22;17996;51.056;3.656;2022-09-21T05:43:10;10.10;99.90
27544;DHT22;17996;51.056;3.656;2022-09-21T05:45:45;10.00;99.90
27544;DHT22;17996;51.056;3.656;2022-09-21T05:48:41;9.90;99.90
27544;DHT22;17996;51.056;3.656;2022-09-21T06:05:11;10.30;99.90
27544;DHT22;17996;51.056;3.656;2022-09-21T06:07:36;10.20;99.90
27544;DHT22;17996;51.056;3.656;2022-09-21T06:10:03;10.20;99.90
27544;DHT22;17996;51.056;3.656;2022-09-21T06:12:28;10.20;99.90
27544;DHT22;17996;51.056;3.656;2022-09-21T06:14:54;10.10;99.90
27544;DHT22;17996;51.056;3.656;2022-09-21T06:17:21;10.00;99.90
27544;DHT22;17996;51.056;3.656;2022-09-21T06:19:47;9.90;99.90
27544;DHT22;17996;51.056;3.656;2022-09-21T06:22:13;9.80;99.90
27544;DHT22;17996;51.056;3.656;2022-09-21T06:24:38;9.90;99.90
27544;DHT22;17996;51.056;3.656;2022-09-21T06:27:04;10.00;99.90
27544;DHT22;17996;51.056;3.656;2022-09-21T06:29:30;9.90;99.90
27544;DHT22;17996;51.056;3.656;2022-09-21T06:31:55;10.00;99.90
27544;DHT22;17996;51.056;3.656;2022-09-21T06:34:21;10.10;99.90
27544;DHT22;17996;51.056;3.656;2022-09-21T06:36:47;10.20;99.90
27544;DHT22;17996;51.056;3.656;2022-09-21T06:39:12;10.20;99.90
27544;DHT22;17996;51.056;3.656;2022-09-21T06:41:38;10.30;99.90
27544;DHT22;17996;51.056;3.656;2022-09-21T06:44:04;10.30;99.90
27544;DHT22;17996;51.056;3.656;2022-09-21T06:46:29;10.40;99.90
27544;DHT22;17996;51.056;3.656;2022-09-21T06:48:55;10.40;99.90
27544;DHT22;17996;51.056;3.656;2022-09-21T06:51:20;10.50;99.90
27544;DHT22;17996;51.056;3.656;2022-09-21T06:53:52;10.50;99.90
27544;DHT22;17996;51.056;3.656;2022-09-21T06:56:18;10.40;99.90
27544;DHT22;17996;51.056;3.656;2022-09-21T06:58:43;10.70;99.90
27544;DHT22;17996;51.056;3.656;2022-09-21T07:01:13;10.50;99.90
27544;DHT22;17996;51.056;3.656;2022-09-21T07:03:40;10.60;99.90
27544;DHT22;17996;51.056;3.656;2022-09-21T07:06:07;10.60;99.90
27544;DHT22;17996;51.056;3.656;2022-09-21T07:08:33;10.70;99.90
27544;DHT22;17996;51.056;3.656;2022-09-21T07:11:00;10.90;99.90
27544;DHT22;17996;51.056;3.656;2022-09-21T07:13:27;10.90;99.90
27544;DHT22;17996;51.056;3.656;2022-09-21T07:15:53;10.90;99.90
27544;DHT22;17996;51.056;3.656;2022-09-21T07:18:18;11.00;99.90
27544;DHT22;17996;51.056;3.656;2022-09-21T07:20:44;11.10;99.90
27544;DHT22;17996;51.056;3.656;2022-09-21T07:23:15;11.20;99.90
27544;DHT22;17996;51.056;3.656;2022-09-21T07:25:42;11.30;99.90
27544;DHT22;17996;51.056;3.656;2022-09-21T07:28:09;11.40;99.90
27544;DHT22;17996;51.056;3.656;2022-09-21T07:30:36;11.30;99.90
27544;DHT22;17996;51.056;3.656;2022-09-21T07:33:03;11.50;99.90
27544;DHT22;17996;51.056;3.656;2022-09-21T07:35:29;11.60;99.90
27544;DHT22;17996;51.056;3.656;2022-09-21T07:37:59;11.50;99.90
27544;DHT22;17996;51.056;3.656;2022-09-21T07:40:25;11.60;99.90
27544;DHT22;17996;51.056;3.656;2022-09-21T07:42:51;11.70;99.90
27544;DHT22;17996;51.056;3.656;2022-09-21T07:45:16;11.70;99.90
27544;DHT22;17996;51.056;3.656;2022-09-21T07:47:43;11.80;99.90
27544;DHT22;17996;51.056;3.656;2022-09-21T07:50:09;12.00;99.90
27544;DHT22;17996;51.056;3.656;2022-09-21T07:52:34;11.90;99.90
27544;DHT22;17996;51.056;3.656;2022-09-21T07:55:00;11.90;99.90
27544;DHT22;17996;51.056;3.656;2022-09-21T07:57:26;12.10;99.90
27544;DHT22;17996;51.056;3.656;2022-09-21T08:00:11;12.10;99.90
27544;DHT22;17996;51.056;3.656;2022-09-21T08:02:36;12.20;99.90
27544;DHT22;17996;51.056;3.656;2022-09-21T08:05:02;12.20;99.90
27544;DHT22;17996;51.056;3.656;2022-09-21T08:07:28;12.30;99.90
27544;DHT22;17996;51.056;3.656;2022-09-21T08:09:54;12.40;99.90
27544;DHT22;17996;51.056;3.656;2022-09-21T08:12:19;12.40;99.90
27544;DHT22;17996;51.056;3.656;2022-09-21T08:14:46;12.50;99.90
27544;DHT22;17996;51.056;3.656;2022-09-21T08:17:15;12.50;99.90
27544;DHT22;17996;51.056;3.656;2022-09-21T08:19:40;12.60;99.90
27544;DHT22;17996;51.056;3.656;2022-09-21T08:22:06;12.60;99.90
27544;DHT22;17996;51.056;3.656;2022-09-21T08:24:32;12.70;99.90
27544;DHT22;17996;51.056;3.656;2022-09-21T08:27:01;12.70;99.90
27544;DHT22;17996;51.056;3.656;2022-09-21T08:29:26;12.80;99.90
27544;DHT22;17996;51.056;3.656;2022-09-21T08:31:53;12.80;99.90
27544;DHT22;17996;51.056;3.656;2022-09-21T08:34:19;12.90;99.90
27544;DHT22;17996;51.056;3.656;2022-09-21T08:36:45;12.90;99.90
27544;DHT22;17996;51.056;3.656;2022-09-21T08:39:11;13.10;99.90
27544;DHT22;17996;51.056;3.656;2022-09-21T08:44:28;13.10;99.90
27544;DHT22;17996;51.056;3.656;2022-09-21T08:50:22;13.20;99.90
27544;DHT22;17996;51.056;3.656;2022-09-21T08:52:55;13.20;99.90
27544;DHT22;17996;51.056;3.656;2022-09-21T08:55:23;13.30;99.90
27544;DHT22;17996;51.056;3.656;2022-09-21T08:57:49;13.30;99.90
27544;DHT22;17996;51.056;3.656;2022-09-21T09:00:17;13.40;99.90
27544;DHT22;17996;51.056;3.656;2022-09-21T09:08:43;13.50;99.90
27544;DHT22;17996;51.056;3.656;2022-09-21T09:19:53;13.60;99.90
27544;DHT22;17996;51.056;3.656;2022-09-21T09:22:49;13.60;99.90
27544;DHT22;17996;51.056;3.656;2022-09-21T09:25:22;13.60;99.90
27544;DHT22;17996;51.056;3.656;2022-09-21T09:28:03;13.70;99.90
27544;DHT22;17996;51.056;3.656;2022-09-21T09:30:32;13.80;99.90
27544;DHT22;17996;51.056;3.656;2022-09-21T09:35:28;13.70;99.90
27544;DHT22;17996;51.056;3.656;2022-09-21T09:37:59;13.80;99.90
27544;DHT22;17996;51.056;3.656;2022-09-21T09:44:10;13.90;99.90
27544;DHT22;17996;51.056;3.656;2022-09-21T09:51:29;14.00;99.90
27544;DHT22;17996;51.056;3.656;2022-09-21T09:53:59;14.00;99.90
27544;DHT22;17996;51.056;3.656;2022-09-21T09:56:26;14.00;99.90
27544;DHT22;17996;51.056;3.656;2022-09-21T09:58:55;14.00;99.90
27544;DHT22;17996;51.056;3.656;2022-09-21T10:01:46;14.10;99.90
27544;DHT22;17996;51.056;3.656;2022-09-21T10:04:23;14.10;99.90
27544;DHT22;17996;51.056;3.656;2022-09-21T10:06:48;14.20;99.90
27544;DHT22;17996;51.056;3.656;2022-09-21T10:09:21;14.20;99.90
27544;DHT22;17996;51.056;3.656;2022-09-21T10:11:48;14.30;99.90
27544;DHT22;17996;51.056;3.656;2022-09-21T10:14:21;14.30;99.90
27544;DHT22;17996;51.056;3.656;2022-09-21T10:16:49;14.40;99.90
27544;DHT22;17996;51.056;3.656;2022-09-21T10:19:25;14.50;99.90
27544;DHT22;17996;51.056;3.656;2022-09-21T10:22:02;14.50;99.90
27544;DHT22;17996;51.056;3.656;2022-09-21T10:24:30;14.50;99.90
27544;DHT22;17996;51.056;3.656;2022-09-21T10:29:50;14.60;99.90
27544;DHT22;17996;51.056;3.656;2022-09-21T10:32:17;14.60;99.90
27544;DHT22;17996;51.056;3.656;2022-09-21T10:37:42;14.60;99.90
27544;DHT22;17996;51.056;3.656;2022-09-21T10:42:51;14.70;99.90
27544;DHT22;17996;51.056;3.656;2022-09-21T10:45:21;14.70;99.90
27544;DHT22;17996;51.056;3.656;2022-09-21T10:53:10;14.90;99.90
27544;DHT22;17996;51.056;3.656;2022-09-21T10:55:39;15.00;99.90
27544;DHT22;17996;51.056;3.656;2022-09-21T10:58:13;15.00;99.90
27544;DHT22;17996;51.056;3.656;2022-09-21T11:00:44;15.00;99.90
27544;DHT22;17996;51.056;3.656;2022-09-21T11:03:35;15.00;99.90
27544;DHT22;17996;51.056;3.656;2022-09-21T11:08:48;15.30;99.90
27544;DHT22;17996;51.056;3.656;2022-09-21T11:14:15;15.50;99.90
27544;DHT22;17996;51.056;3.656;2022-09-21T11:16:57;15.70;99.90
27544;DHT22;17996;51.056;3.656;2022-09-21T11:22:42;15.80;99.90
27544;DHT22;17996;51.056;3.656;2022-09-21T11:28:17;16.10;99.90
27544;DHT22;17996;51.056;3.656;2022-09-21T11:33:30;16.30;99.90
27544;DHT22;17996;51.056;3.656;2022-09-21T11:36:30;16.30;99.90
27544;DHT22;17996;51.056;3.656;2022-09-21T11:39:21;16.40;99.90
27544;DHT22;17996;51.056;3.656;2022-09-21T11:53:53;16.90;99.90
27544;DHT22;17996;51.056;3.656;2022-09-21T12:01:38;17.00;99.90
27544;DHT22;17996;51.056;3.656;2022-09-21T12:04:18;17.00;99.90
27544;DHT22;17996;51.056;3.656;2022-09-21T12:09:57;17.00;99.90
27544;DHT22;17996;51.056;3.656;2022-09-21T12:12:47;16.90;99.90
27544;DHT22;17996;51.056;3.656;2022-09-21T12:16:01;16.90;99.90
27544;DHT22;17996;51.056;3.656;2022-09-21T12:18:53;16.90;99.90
27544;DHT22;17996;51.056;3.656;2022-09-21T12:21:39;16.90;99.90
27544;DHT22;17996;51.056;3.656;2022-09-21T12:24:26;16.90;99.90
27544;DHT22;17996;51.056;3.656;2022-09-21T12:26:56;16.80;99.90
27544;DHT22;17996;51.056;3.656;2022-09-21T12:29:39;16.70;99.90
27544;DHT22;17996;51.056;3.656;2022-09-21T12:34:56;16.50;99.90
27544;DHT22;17996;51.056;3.656;2022-09-21T12:37:40;16.40;99.90
27544;DHT22;17996;51.056;3.656;2022-09-21T12:40:24;16.40;99.90
27544;DHT22;17996;51.056;3.656;2022-09-21T12:46:04;16.40;99.90
27544;DHT22;17996;51.056;3.656;2022-09-21T12:48:36;16.40;99.90
27544;DHT22;17996;51.056;3.656;2022-09-21T12:53:59;16.30;99.90
27544;DHT22;17996;51.056;3.656;2022-09-21T12:56:45;16.30;99.90
27544;DHT22;17996;51.056;3.656;2022-09-21T13:02:13;16.30;99.90
27544;DHT22;17996;51.056;3.656;2022-09-21T13:09:50;16.40;99.90
27544;DHT22;17996;51.056;3.656;2022-09-21T13:12:22;16.40;99.90
27544;DHT22;17996;51.056;3.656;2022-09-21T13:15:13;16.50;99.90
27544;DHT22;17996;51.056;3.656;2022-09-21T13:17:41;16.70;99.90
27544;DHT22;17996;51.056;3.656;2022-09-21T13:20:18;16.80;99.90
27544;DHT22;17996;51.056;3.656;2022-09-21T13:22:45;16.90;99.90
27544;DHT22;17996;51.056;3.656;2022-09-21T13:25:21;17.00;99.90
27544;DHT22;17996;51.056;3.656;2022-09-21T13:49:21;17.30;99.90
27544;DHT22;17996;51.056;3.656;2022-09-21T13:54:53;17.30;99.90
27544;DHT22;17996;51.056;3.656;2022-09-21T13:57:47;17.30;99.90
27544;DHT22;17996;51.056;3.656;2022-09-21T14:03:00;17.40;99.90
27544;DHT22;17996;51.056;3.656;2022-09-21T14:10:55;17.30;99.90
27544;DHT22;17996;51.056;3.656;2022-09-21T14:13:33;17.20;99.90
27544;DHT22;17996;51.056;3.656;2022-09-21T14:16:52;17.20;99.90
27544;DHT22;17996;51.056;3.656;2022-09-21T14:24:44;17.10;99.90
27544;DHT22;17996;51.056;3.656;2022-09-21T14:27:33;17.10;99.90
27544;DHT22;17996;51.056;3.656;2022-09-21T14:32:44;17.30;99.90
27544;DHT22;17996;51.056;3.656;2022-09-21T14:35:17;17.60;99.90
27544;DHT22;17996;51.056;3.656;2022-09-21T14:37:56;17.80;99.90
27544;DHT22;17996;51.056;3.656;2022-09-21T14:40:25;18.00;99.90
27544;DHT22;17996;51.056;3.656;2022-09-21T14:42:57;18.20;99.90
27544;DHT22;17996;51.056;3.656;2022-09-21T14:46:00;18.20;99.90
27544;DHT22;17996;51.056;3.656;2022-09-21T14:54:29;17.90;99.90
27544;DHT22;17996;51.056;3.656;2022-09-21T15:02:29;17.50;99.90
27544;DHT22;17996;51.056;3.656;2022-09-21T15:08:21;17.30;99.90
27544;DHT22;17996;51.056;3.656;2022-09-21T15:11:29;17.30;99.90
27544;DHT22;17996;51.056;3.656;2022-09-21T15:16:56;18.30;99.90
27544;DHT22;17996;51.056;3.656;2022-09-21T15:19:27;18.60;99.90
27544;DHT22;17996;51.056;3.656;2022-09-21T15:21:55;19.00;99.90
27544;DHT22;17996;51.056;3.656;2022-09-21T15:24:28;19.20;99.90
27544;DHT22;17996;51.056;3.656;2022-09-21T15:27:10;19.40;99.90
27544;DHT22;17996;51.056;3.656;2022-09-21T15:29:42;19.50;99.90
27544;DHT22;17996;51.056;3.656;2022-09-21T15:34:57;19.20;99.90
27544;DHT22;17996;51.056;3.656;2022-09-21T15:37:26;19.00;99.90
27544;DHT22;17996;51.056;3.656;2022-09-21T15:40:00;18.70;99.90
27544;DHT22;17996;51.056;3.656;2022-09-21T15:42:27;18.50;99.90
27544;DHT22;17996;51.056;3.656;2022-09-21T15:45:14;18.30;99.90
27544;DHT22;17996;51.056;3.656;2022-09-21T15:47:40;18.10;99.90
27544;DHT22;17996;51.056;3.656;2022-09-21T15:50:16;18.00;99.90
27544;DHT22;17996;51.056;3.656;2022-09-21T15:52:51;17.80;99.90
27544;DHT22;17996;51.056;3.656;2022-09-21T15:55:20;17.70;99.90
27544;DHT22;17996;51.056;3.656;2022-09-21T15:57:48;17.60;99.90
27544;DHT22;17996;51.056;3.656;2022-09-21T16:02:49;17.40;99.90
27544;DHT22;17996;51.056;3.656;2022-09-21T16:05:16;17.40;99.90
27544;DHT22;17996;51.056;3.656;2022-09-21T16:07:45;17.30;99.90
27544;DHT22;17996;51.056;3.656;2022-09-21T16:10:36;17.30;99.90
27544;DHT22;17996;51.056;3.656;2022-09-21T16:13:03;17.20;99.90
27544;DHT22;17996;51.056;3.656;2022-09-21T16:16:12;17.10;99.90
27544;DHT22;17996;51.056;3.656;2022-09-21T16:18:39;17.10;99.90
27544;DHT22;17996;51.056;3.656;2022-09-21T16:23:54;17.00;99.90
27544;DHT22;17996;51.056;3.656;2022-09-21T16:26:34;16.90;99.90
27544;DHT22;17996;51.056;3.656;2022-09-21T16:29:24;16.90;99.90
27544;DHT22;17996;51.056;3.656;2022-09-21T16:31:51;16.80;99.90
27544;DHT22;17996;51.056;3.656;2022-09-21T16:34:38;16.70;99.90
27544;DHT22;17996;51.056;3.656;2022-09-21T16:39:54;16.70;99.90
27544;DHT22;17996;51.056;3.656;2022-09-21T16:42:21;16.70;99.90
27544;DHT22;17996;51.056;3.656;2022-09-21T16:44:48;16.60;99.90
27544;DHT22;17996;51.056;3.656;2022-09-21T16:47:21;16.60;99.90
27544;DHT22;17996;51.056;3.656;2022-09-21T16:49:50;16.60;99.90
27544;DHT22;17996;51.056;3.656;2022-09-21T16:52:18;16.50;99.90
27544;DHT22;17996;51.056;3.656;2022-09-21T16:54:43;16.50;99.90
27544;DHT22;17996;51.056;3.656;2022-09-21T16:57:11;16.40;99.90
27544;DHT22;17996;51.056;3.656;2022-09-21T16:59:37;16.40;99.90
27544;DHT22;17996;51.056;3.656;2022-09-21T17:02:03;16.40;99.90
27544;DHT22;17996;51.056;3.656;2022-09-21T17:04:31;16.30;99.90
27544;DHT22;17996;51.056;3.656;2022-09-21T17:06:57;16.20;99.90
27544;DHT22;17996;51.056;3.656;2022-09-21T17:09:36;16.20;99.90
27544;DHT22;17996;51.056;3.656;2022-09-21T17:12:05;16.10;99.90
27544;DHT22;17996;51.056;3.656;2022-09-21T17:14:34;16.10;99.90
27544;DHT22;17996;51.056;3.656;2022-09-21T17:17:15;16.00;99.90
27544;DHT22;17996;51.056;3.656;2022-09-21T17:19:42;16.00;99.90
27544;DHT22;17996;51.056;3.656;2022-09-21T17:22:09;15.90;99.90
27544;DHT22;17996;51.056;3.656;2022-09-21T17:24:45;15.90;99.90
27544;DHT22;17996;51.056;3.656;2022-09-21T17:27:12;15.80;99.90
27544;DHT22;17996;51.056;3.656;2022-09-21T17:29:39;15.80;99.90
27544;DHT22;17996;51.056;3.656;2022-09-21T17:32:12;15.70;99.90
27544;DHT22;17996;51.056;3.656;2022-09-21T17:34:38;15.70;99.90
27544;DHT22;17996;51.056;3.656;2022-09-21T17:37:05;15.60;99.90
27544;DHT22;17996;51.056;3.656;2022-09-21T17:39:31;15.50;99.90
27544;DHT22;17996;51.056;3.656;2022-09-21T17:42:26;15.50;99.90
27544;DHT22;17996;51.056;3.656;2022-09-21T17:45:01;15.40;99.90
27544;DHT22;17996;51.056;3.656;2022-09-21T17:47:29;15.30;99.90
27544;DHT22;17996;51.056;3.656;2022-09-21T17:50:22;15.30;99.90
27544;DHT22;17996;51.056;3.656;2022-09-21T17:52:50;15.20;99.90
27544;DHT22;17996;51.056;3.656;2022-09-21T17:55:35;15.10;99.90
27544;DHT22;17996;51.056;3.656;2022-09-21T17:58:19;15.10;99.90
27544;DHT22;17996;51.056;3.656;2022-09-21T18:03:30;15.00;99.90
27544;DHT22;17996;51.056;3.656;2022-09-21T18:05:57;14.80;99.90
27544;DHT22;17996;51.056;3.656;2022-09-21T18:08:31;14.80;99.90
27544;DHT22;17996;51.056;3.656;2022-09-21T18:11:11;14.80;99.90
27544;DHT22;17996;51.056;3.656;2022-09-21T18:16:46;14.70;99.90
27544;DHT22;17996;51.056;3.656;2022-09-21T18:25:15;14.50;99.90
27544;DHT22;17996;51.056;3.656;2022-09-21T18:27:42;14.50;99.90
27544;DHT22;17996;51.056;3.656;2022-09-21T18:30:11;14.50;99.90
27544;DHT22;17996;51.056;3.656;2022-09-21T18:43:33;14.30;99.90
27544;DHT22;17996;51.056;3.656;2022-09-21T18:46:08;14.30;99.90
27544;DHT22;17996;51.056;3.656;2022-09-21T18:49:01;14.20;99.90
27544;DHT22;17996;51.056;3.656;2022-09-21T18:51:33;14.20;99.90
27544;DHT22;17996;51.056;3.656;2022-09-21T18:54:02;14.10;99.90
27544;DHT22;17996;51.056;3.656;2022-09-21T18:56:34;14.10;99.90
27544;DHT22;17996;51.056;3.656;2022-09-21T18:59:02;14.10;99.90
27544;DHT22;17996;51.056;3.656;2022-09-21T19:01:28;14.10;99.90
27544;DHT22;17996;51.056;3.656;2022-09-21T19:03:58;14.10;99.90
27544;DHT22;17996;51.056;3.656;2022-09-21T19:06:36;14.00;99.90
27544;DHT22;17996;51.056;3.656;2022-09-21T19:23:30;13.90;99.90
27544;DHT22;17996;51.056;3.656;2022-09-21T19:26:30;13.90;99.90
27544;DHT22;17996;51.056;3.656;2022-09-21T19:31:44;13.80;99.90
27544;DHT22;17996;51.056;3.656;2022-09-21T19:34:15;13.80;99.90
27544;DHT22;17996;51.056;3.656;2022-09-21T19:36:41;13.80;99.90
27544;DHT22;17996;51.056;3.656;2022-09-21T19:39:09;13.70;99.90
27544;DHT22;17996;51.056;3.656;2022-09-21T19:42:38;13.70;99.90
27544;DHT22;17996;51.056;3.656;2022-09-21T19:45:25;13.70;99.90
27544;DHT22;17996;51.056;3.656;2022-09-21T19:47:53;13.70;99.90
27544;DHT22;17996;51.056;3.656;2022-09-21T19:50:28;13.60;99.90
27544;DHT22;17996;51.056;3.656;2022-09-21T19:52:55;13.60;99.90
27544;DHT22;17996;51.056;3.656;2022-09-21T19:55:42;13.60;99.90
27544;DHT22;17996;51.056;3.656;2022-09-21T19:58:27;13.60;99.90
27544;DHT22;17996;51.056;3.656;2022-09-21T20:01:16;13.50;99.90